sensor_id;sensor_type;location;lat;lon;timestamp;temperature;humidity
5011;DHT22;2524;54.364;10.072;2024-01-15T00:01:56;2.90;99.90
5011;DHT22;2524;54.364;10.072;2024-01-15T00:04:22;2.90;99.90
5011;DHT22;2524;54.364;10.072;2024-01-15T00:06:48;2.90;99.90
5011;DHT22;2524;54.364;10.072;2024-01-15T00:09:14;2.90;99.90
5011;DHT22;2524;54.364;10.072;2024-01-15T00:11:40;2.90;99.90
5011;DHT22;2524;54.364;10.072;2024-01-15T00:14:06;2.90;99.90
5011;DHT22;2524;54.364;10.072;2024-01-15T00:16:31;2.90;99.90
5011;DHT22;2524;54.364;10.072;2024-01-15T00:18:57;2.80;99.90
5011;DHT22;2524;54.364;10.072;2024-01-15T00:21:22;2.80;99.90
5011;DHT22;2524;54.364;10.072;2024-01-15T00:23:48;2.70;99.90
5011;DHT22;2524;54.364;10.072;2024-01-15T00:26:14;2.70;99.90
5011;DHT22;2524;54.364;10.072;2024-01-15T00:28:40;2.60;99.90
5011;DHT22;2524;54.364;10.072;2024-01-15T00:31:06;2.60;99.90
5011;DHT22;2524;54.364;10.072;2024-01-15T00:33:31;2.80;99.90
5011;DHT22;2524;54.364;10.072;2024-01-15T00:35:57;2.50;99.90
5011;DHT22;2524;54.364;10.072;2024-01-15T00:38:23;2.50;99.90
5011;DHT22;2524;54.364;10.072;2024-01-15T00:40:48;2.50;99.90
5011;DHT22;2524;54.364;10.072;2024-01-15T00:43:14;2.50;99.90
5011;DHT22;2524;54.364;10.072;2024-01-15T00:45:40;2.50;99.90
5011;DHT22;2524;54.364;10.072;2024-01-15T00:48:05;2.50;99.90
5011;DHT22;2524;54.364;10.072;2024-01-15T00:50:31;2.60;99.90
5011;DHT22;2524;54.364;10.072;2024-01-15T00:52:57;2.60;99.90
5011;DHT22;2524;54.364;10.072;2024-01-15T00:55:22;2.60;99.90
5011;DHT22;2524;54.364;10.072;2024-01-15T00:57:48;2.60;99.90
5011;DHT22;2524;54.364;10.072;2024-01-15T01:00:14;2.70;99.90
5011;DHT22;2524;54.364;10.072;2024-01-15T01:02:39;2.70;99.90
5011;DHT22;2524;54.364;10.072;2024-01-15T01:05:05;2.70;99.90
5011;DHT22;2524;54.364;10.072;2024-01-15T01:07:31;2.70;99.90
5011;DHT22;2524;54.364;10.072;2024-01-15T01:09:56;2.70;99.90
5011;DHT22;2524;54.364;10.072;2024-01-15T01:12:22;2.70;99.90
5011;DHT22;2524;54.364;10.072;2024-01-15T01:14:47;2.80;99.90
5011;DHT22;2524;54.364;10.072;2024-01-15T01:17:13;2.80;99.90
5011;DHT22;2524;54.364;10.072;2024-01-15T01:19:39;2.80;99.90
5011;DHT22;2524;54.364;10.072;2024-01-15T01:22:04;2.80;99.90
5011;DHT22;2524;54.364;10.072;2024-01-15T01:24:30;2.80;99.90
5011;DHT22;2524;54.364;10.072;2024-01-15T01:26:56;2.80;99.90
5011;DHT22;2524;54.364;10.072;2024-01-15T01:29:21;2.80;99.90
5011;DHT22;2524;54.364;10.072;2024-01-15T01:31:48;2.80;99.90
5011;DHT22;2524;54.364;10.072;2024-01-15T01:34:15;2.80;99.90
5011;DHT22;2524;54.364;10.072;2024-01-15T01:36:42;2.90;99.90
5011;DHT22;2524;54.364;10.072;2024-01-15T01:39:07;2.80;99.90
5011;DHT22;2524;54.364;10.072;2024-01-15T01:41:33;2.80;99.90
5011;DHT22;2524;54.364;10.072;2024-01-15T01:43:58;2.80;99.90
5011;DHT22;2524;54.364;10.072;2024-01-15T01:46:25;2.80;99.90
5011;DHT22;2524;54.364;10.072;2024-01-15T01:48:52;2.80;99.90
5011;DHT22;2524;54.364;10.072;2024-01-15T01:51:19;2.80;99.90
5011;DHT22;2524;54.364;10.072;2024-01-15T01:53:46;2.80;99.90
5011;DHT22;2524;54.364;10.072;2024-01-15T01:56:12;2.80;99.90
5011;DHT22;2524;54.364;10.072;2024-01-15T01:58:40;2.70;99.90
5011;DHT22;2524;54.364;10.072;2024-01-15T02:01:06;2.80;99.90
5011;DHT22;2524;54.364;10.072;2024-01-15T02:03:32;2.80;99.90
5011;DHT22;2524;54.364;10.072;2024-01-15T02:05:59;2.70;99.90
5011;DHT22;2524;54.364;10.072;2024-01-15T02:08:26;2.80;99.90
5011;DHT22;2524;54.364;10.072;2024-01-15T02:10:52;2.70;99.90
5011;DHT22;2524;54.364;10.072;2024-01-15T02:13:18;2.70;99.90
5011;DHT22;2524;54.364;10.072;2024-01-15T02:15:44;2.70;99.90
5011;DHT22;2524;54.364;10.072;2024-01-15T02:18:10;2.70;99.90
5011;DHT22;2524;54.364;10.072;2024-01-15T02:20:36;2.70;99.90
5011;DHT22;2524;54.364;10.072;2024-01-15T02:23:12;2.70;99.90
5011;DHT22;2524;54.364;10.072;2024-01-15T02:25:40;2.70;99.90
5011;DHT22;2524;54.364;10.072;2024-01-15T02:28:07;2.60;99.90
5011;DHT22;2524;54.364;10.072;2024-01-15T02:30:37;2.60;99.90
5011;DHT22;2524;54.364;10.072;2024-01-15T02:33:04;2.60;99.90
5011;DHT22;2524;54.364;10.072;2024-01-15T02:35:30;2.60;99.90
5011;DHT22;2524;54.364;10.072;2024-01-15T02:37:55;2.60;99.90
5011;DHT22;2524;54.364;10.072;2024-01-15T02:40:21;2.60;99.90
5011;DHT22;2524;54.364;10.072;2024-01-15T02:42:46;2.60;99.90
5011;DHT22;2524;54.364;10.072;2024-01-15T02:45:12;2.70;99.90
5011;DHT22;2524;54.364;10.072;2024-01-15T02:47:38;2.60;99.90
5011;DHT22;2524;54.364;10.072;2024-01-15T02:50:04;2.70;99.90
5011;DHT22;2524;54.364;10.072;2024-01-15T02:52:29;2.60;99.90
5011;DHT22;2524;54.364;10.072;2024-01-15T02:54:55;2.60;99.90
5011;DHT22;2524;54.364;10.072;2024-01-15T02:57:21;2.60;99.90
5011;DHT22;2524;54.364;10.072;2024-01-15T02:59:46;2.60;99.90
5011;DHT22;2524;54.364;10.072;2024-01-15T03:02:12;2.60;99.90
5011;DHT22;2524;54.364;10.072;2024-01-15T03:04:37;2.60;99.90
5011;DHT22;2524;54.364;10.072;2024-01-15T03:07:03;2.60;99.90
5011;DHT22;2524;54.364;10.072;2024-01-15T03:09:28;2.60;99.90
5011;DHT22;2524;54.364;10.072;2024-01-15T03:11:54;2.60;99.90
5011;DHT22;2524;54.364;10.072;2024-01-15T03:14:20;2.50;99.90
5011;DHT22;2524;54.364;10.072;2024-01-15T03:16:45;2.50;99.90
5011;DHT22;2524;54.364;10.072;2024-01-15T03:19:11;2.50;99.90
5011;DHT22;2524;54.364;10.072;2024-01-15T03:21:37;2.50;99.90
5011;DHT22;2524;54.364;10.072;2024-01-15T03:24:02;2.50;99.90
5011;DHT22;2524;54.364;10.072;2024-01-15T03:26:28;2.40;99.90
5011;DHT22;2524;54.364;10.072;2024-01-15T03:28:53;2.40;99.90
5011;DHT22;2524;54.364;10.072;2024-01-15T03:31:19;2.40;99.90
5011;DHT22;2524;54.364;10.072;2024-01-15T03:33:45;2.40;99.90
5011;DHT22;2524;54.364;10.072;2024-01-15T03:36:10;2.40;99.90
5011;DHT22;2524;54.364;10.072;2024-01-15T03:38:40;2.40;99.90
5011;DHT22;2524;54.364;10.072;2024-01-15T03:41:06;2.40;99.90
5011;DHT22;2524;54.364;10.072;2024-01-15T03:43:31;2.30;99.90
5011;DHT22;2524;54.364;10.072;2024-01-15T03:45:57;2.30;99.90
5011;DHT22;2524;54.364;10.072;2024-01-15T03:48:22;2.40;99.90
5011;DHT22;2524;54.364;10.072;2024-01-15T03:50:48;2.40;99.90
5011;DHT22;2524;54.364;10.072;2024-01-15T03:53:14;2.40;99.90
5011;DHT22;2524;54.364;10.072;2024-01-15T03:55:39;2.40;99.90
5011;DHT22;2524;54.364;10.072;2024-01-15T03:58:05;2.40;99.90
5011;DHT22;2524;54.364;10.072;2024-01-15T04:00:30;2.40;99.90
5011;DHT22;2524;54.364;10.072;2024-01-15T04:02:56;2.40;99.90
5011;DHT22;2524;54.364;10.072;2024-01-15T04:05:23;2.40;99.90
5011;DHT22;2524;54.364;10.072;2024-01-15T04:07:48;2.40;99.90
5011;DHT22;2524;54.364;10.072;2024-01-15T04:10:14;2.50;99.90
5011;DHT22;2524;54.364;10.072;2024-01-15T04:12:39;2.50;99.90
5011;DHT22;2524;54.364;10.072;2024-01-15T04:15:05;2.40;99.90
5011;DHT22;2524;54.364;10.072;2024-01-15T04:17:31;2.40;99.90
5011;DHT22;2524;54.364;10.072;2024-01-15T04:19:57;2.50;99.90
5011;DHT22;2524;54.364;10.072;2024-01-15T04:22:23;2.50;99.90
5011;DHT22;2524;54.364;10.072;2024-01-15T04:24:48;2.50;99.90
5011;DHT22;2524;54.364;10.072;2024-01-15T04:27:14;2.50;99.90
5011;DHT22;2524;54.364;10.072;2024-01-15T04:29:39;2.50;99.90
5011;DHT22;2524;54.364;10.072;2024-01-15T04:32:05;2.60;99.90
5011;DHT22;2524;54.364;10.072;2024-01-15T04:34:31;2.50;99.90
5011;DHT22;2524;54.364;10.072;2024-01-15T04:36:57;2.50;99.90
5011;DHT22;2524;54.364;10.072;2024-01-15T04:39:22;2.60;99.90
5011;DHT22;2524;54.364;10.072;2024-01-15T04:41:48;2.60;99.90
5011;DHT22;2524;54.364;10.072;2024-01-15T04:44:14;2.60;99.90
5011;DHT22;2524;54.364;10.072;2024-01-15T04:46:39;2.50;99.90
5011;DHT22;2524;54.364;10.072;2024-01-15T04:49:05;2.60;99.90
5011;DHT22;2524;54.364;10.072;2024-01-15T04:51:30;2.50;99.90
5011;DHT22;2524;54.364;10.072;2024-01-15T04:53:56;2.60;99.90
5011;DHT22;2524;54.364;10.072;2024-01-15T04:56:22;2.60;99.90
5011;DHT22;2524;54.364;10.072;2024-01-15T04:58:47;2.60;99.90
5011;DHT22;2524;54.364;10.072;2024-01-15T05:01:13;2.60;99.90
5011;DHT22;2524;54.364;10.072;2024-01-15T05:03:40;2.60;99.90
5011;DHT22;2524;54.364;10.072;2024-01-15T05:06:06;2.50;99.90
5011;DHT22;2524;54.364;10.072;2024-01-15T05:08:32;2.60;99.90
5011;DHT22;2524;54.364;10.072;2024-01-15T05:10:57;2.60;99.90
5011;DHT22;2524;54.364;10.072;2024-01-15T05:13:23;2.60;99.90
5011;DHT22;2524;54.364;10.072;2024-01-15T05:15:49;2.60;99.90
5011;DHT22;2524;54.364;10.072;2024-01-15T05:18:16;2.60;99.90
5011;DHT22;2524;54.364;10.072;2024-01-15T05:20:42;2.60;99.90
5011;DHT22;2524;54.364;10.072;2024-01-15T05:23:07;2.60;99.90
5011;DHT22;2524;54.364;10.072;2024-01-15T05:25:33;2.60;99.90
5011;DHT22;2524;54.364;10.072;2024-01-15T05:27:59;2.60;99.90
5011;DHT22;2524;54.364;10.072;2024-01-15T05:30:25;2.60;99.90
5011;DHT22;2524;54.364;10.072;2024-01-15T05:32:50;2.60;99.90
5011;DHT22;2524;54.364;10.072;2024-01-15T05:35:16;2.60;99.90
5011;DHT22;2524;54.364;10.072;2024-01-15T05:37:44;2.60;99.90
5011;DHT22;2524;54.364;10.072;2024-01-15T05:40:11;2.50;99.90
5011;DHT22;2524;54.364;10.072;2024-01-15T05:42:37;2.50;99.90
5011;DHT22;2524;54.364;10.072;2024-01-15T05:45:03;2.50;99.90
5011;DHT22;2524;54.364;10.072;2024-01-15T05:47:30;2.50;99.90
5011;DHT22;2524;54.364;10.072;2024-01-15T05:49:56;2.50;99.90
5011;DHT22;2524;54.364;10.072;2024-01-15T05:52:22;2.50;99.90
5011;DHT22;2524;54.364;10.072;2024-01-15T05:54:49;2.50;99.90
5011;DHT22;2524;54.364;10.072;2024-01-15T05:57:14;2.50;99.90
5011;DHT22;2524;54.364;10.072;2024-01-15T05:59:42;2.50;99.90
5011;DHT22;2524;54.364;10.072;2024-01-15T06:02:08;2.50;99.90
5011;DHT22;2524;54.364;10.072;2024-01-15T06:04:33;2.50;99.90
5011;DHT22;2524;54.364;10.072;2024-01-15T06:06:59;2.40;99.90
5011;DHT22;2524;54.364;10.072;2024-01-15T06:09:31;2.40;99.90
5011;DHT22;2524;54.364;10.072;2024-01-15T06:11:57;2.40;99.90
5011;DHT22;2524;54.364;10.072;2024-01-15T06:14:22;2.40;99.90
5011;DHT22;2524;54.364;10.072;2024-01-15T06:16:48;2.40;99.90
5011;DHT22;2524;54.364;10.072;2024-01-15T06:19:14;2.40;99.90
5011;DHT22;2524;54.364;10.072;2024-01-15T06:21:40;2.40;99.90
5011;DHT22;2524;54.364;10.072;2024-01-15T06:24:06;2.40;99.90
5011;DHT22;2524;54.364;10.072;2024-01-15T06:26:31;2.40;99.90
5011;DHT22;2524;54.364;10.072;2024-01-15T06:28:57;2.40;99.90
5011;DHT22;2524;54.364;10.072;2024-01-15T06:31:22;2.30;99.90
5011;DHT22;2524;54.364;10.072;2024-01-15T06:33:48;2.30;99.90
5011;DHT22;2524;54.364;10.072;2024-01-15T06:36:14;2.30;99.90
5011;DHT22;2524;54.364;10.072;2024-01-15T06:38:43;2.30;99.90
5011;DHT22;2524;54.364;10.072;2024-01-15T06:41:08;2.30;99.90
5011;DHT22;2524;54.364;10.072;2024-01-15T06:43:34;2.30;99.90
5011;DHT22;2524;54.364;10.072;2024-01-15T06:45:59;2.50;99.90
5011;DHT22;2524;54.364;10.072;2024-01-15T06:48:26;2.30;99.90
5011;DHT22;2524;54.364;10.072;2024-01-15T06:50:52;2.30;99.90
5011;DHT22;2524;54.364;10.072;2024-01-15T06:53:17;2.30;99.90
5011;DHT22;2524;54.364;10.072;2024-01-15T06:55:43;2.30;99.90
5011;DHT22;2524;54.364;10.072;2024-01-15T06:58:08;2.20;99.90
5011;DHT22;2524;54.364;10.072;2024-01-15T07:00:34;2.20;99.90
5011;DHT22;2524;54.364;10.072;2024-01-15T07:03:00;2.20;99.90
5011;DHT22;2524;54.364;10.072;2024-01-15T07:05:25;2.20;99.90
5011;DHT22;2524;54.364;10.072;2024-01-15T07:07:51;2.20;99.90
5011;DHT22;2524;54.364;10.072;2024-01-15T07:10:17;2.30;99.90
5011;DHT22;2524;54.364;10.072;2024-01-15T07:12:43;2.20;99.90
5011;DHT22;2524;54.364;10.072;2024-01-15T07:15:09;2.10;99.90
5011;DHT22;2524;54.364;10.072;2024-01-15T07:17:35;2.30;99.90
5011;DHT22;2524;54.364;10.072;2024-01-15T07:20:01;2.20;99.90
5011;DHT22;2524;54.364;10.072;2024-01-15T07:22:27;2.20;99.90
5011;DHT22;2524;54.364;10.072;2024-01-15T07:24:52;2.20;99.90
5011;DHT22;2524;54.364;10.072;2024-01-15T07:27:18;2.30;99.90
5011;DHT22;2524;54.364;10.072;2024-01-15T07:29:44;2.30;99.90
5011;DHT22;2524;54.364;10.072;2024-01-15T07:32:10;2.20;99.90
5011;DHT22;2524;54.364;10.072;2024-01-15T07:34:35;2.10;99.90
5011;DHT22;2524;54.364;10.072;2024-01-15T07:37:01;2.10;99.90
5011;DHT22;2524;54.364;10.072;2024-01-15T07:39:26;2.10;99.90
5011;DHT22;2524;54.364;10.072;2024-01-15T07:41:54;2.10;99.90
5011;DHT22;2524;54.364;10.072;2024-01-15T07:44:20;2.20;99.90
5011;DHT22;2524;54.364;10.072;2024-01-15T07:46:46;2.20;99.90
5011;DHT22;2524;54.364;10.072;2024-01-15T07:49:12;2.10;99.90
5011;DHT22;2524;54.364;10.072;2024-01-15T07:51:38;2.20;99.90
5011;DHT22;2524;54.364;10.072;2024-01-15T07:54:05;2.10;99.90
5011;DHT22;2524;54.364;10.072;2024-01-15T07:56:31;2.10;99.90
5011;DHT22;2524;54.364;10.072;2024-01-15T07:58:57;2.20;99.90
5011;DHT22;2524;54.364;10.072;2024-01-15T08:01:22;2.10;99.90
5011;DHT22;2524;54.364;10.072;2024-01-15T08:03:48;2.10;99.90
5011;DHT22;2524;54.364;10.072;2024-01-15T08:06:14;2.10;99.90
5011;DHT22;2524;54.364;10.072;2024-01-15T08:08:39;2.10;99.90
5011;DHT22;2524;54.364;10.072;2024-01-15T08:11:05;2.00;99.90
5011;DHT22;2524;54.364;10.072;2024-01-15T08:13:31;2.00;99.90
5011;DHT22;2524;54.364;10.072;2024-01-15T08:15:57;2.00;99.90
5011;DHT22;2524;54.364;10.072;2024-01-15T08:18:22;2.00;99.90
5011;DHT22;2524;54.364;10.072;2024-01-15T08:20:48;2.00;99.90
5011;DHT22;2524;54.364;10.072;2024-01-15T08:23:15;1.90;99.90
5011;DHT22;2524;54.364;10.072;2024-01-15T08:25:41;1.90;99.90
5011;DHT22;2524;54.364;10.072;2024-01-15T08:28:07;2.10;99.90
5011;DHT22;2524;54.364;10.072;2024-01-15T08:30:33;1.90;99.90
5011;DHT22;2524;54.364;10.072;2024-01-15T08:33:00;2.10;99.90
5011;DHT22;2524;54.364;10.072;2024-01-15T08:35:25;1.90;99.90
5011;DHT22;2524;54.364;10.072;2024-01-15T08:37:51;2.00;99.90
5011;DHT22;2524;54.364;10.072;2024-01-15T08:40:17;1.90;99.90
5011;DHT22;2524;54.364;10.072;2024-01-15T08:42:43;1.90;99.90
5011;DHT22;2524;54.364;10.072;2024-01-15T08:45:09;1.90;99.90
5011;DHT22;2524;54.364;10.072;2024-01-15T08:47:35;1.80;99.90
5011;DHT22;2524;54.364;10.072;2024-01-15T08:50:01;1.80;99.90
5011;DHT22;2524;54.364;10.072;2024-01-15T08:52:28;1.80;99.90
5011;DHT22;2524;54.364;10.072;2024-01-15T08:54:55;2.00;99.90
5011;DHT22;2524;54.364;10.072;2024-01-15T08:57:21;1.80;99.90
5011;DHT22;2524;54.364;10.072;2024-01-15T08:59:47;1.90;99.90
5011;DHT22;2524;54.364;10.072;2024-01-15T09:02:13;1.80;99.90
5011;DHT22;2524;54.364;10.072;2024-01-15T09:04:39;1.80;99.90
5011;DHT22;2524;54.364;10.072;2024-01-15T09:07:04;1.70;99.90
5011;DHT22;2524;54.364;10.072;2024-01-15T09:09:30;1.70;99.90
5011;DHT22;2524;54.364;10.072;2024-01-15T09:11:55;1.70;99.90
5011;DHT22;2524;54.364;10.072;2024-01-15T09:14:21;1.80;99.90
5011;DHT22;2524;54.364;10.072;2024-01-15T09:16:47;1.70;99.90
5011;DHT22;2524;54.364;10.072;2024-01-15T09:19:19;1.70;99.90
5011;DHT22;2524;54.364;10.072;2024-01-15T09:21:45;1.70;99.90
5011;DHT22;2524;54.364;10.072;2024-01-15T09:24:11;1.60;99.90
5011;DHT22;2524;54.364;10.072;2024-01-15T09:26:36;1.80;99.90
5011;DHT22;2524;54.364;10.072;2024-01-15T09:29:02;1.70;99.90
5011;DHT22;2524;54.364;10.072;2024-01-15T09:31:28;1.60;99.90
5011;DHT22;2524;54.364;10.072;2024-01-15T09:33:54;1.60;99.90
5011;DHT22;2524;54.364;10.072;2024-01-15T09:36:23;1.70;99.90
5011;DHT22;2524;54.364;10.072;2024-01-15T09:38:49;1.60;99.90
5011;DHT22;2524;54.364;10.072;2024-01-15T09:41:15;1.60;99.90
5011;DHT22;2524;54.364;10.072;2024-01-15T09:43:41;1.60;99.90
5011;DHT22;2524;54.364;10.072;2024-01-15T09:46:08;1.60;99.90
5011;DHT22;2524;54.364;10.072;2024-01-15T09:48:33;1.60;99.90
5011;DHT22;2524;54.364;10.072;2024-01-15T09:51:01;1.70;99.90
5011;DHT22;2524;54.364;10.072;2024-01-15T09:53:27;1.70;99.90
5011;DHT22;2524;54.364;10.072;2024-01-15T09:55:53;1.70;99.90
5011;DHT22;2524;54.364;10.072;2024-01-15T09:58:19;1.70;99.90
5011;DHT22;2524;54.364;10.072;2024-01-15T10:00:47;1.80;99.90
5011;DHT22;2524;54.364;10.072;2024-01-15T10:03:15;1.70;99.90
5011;DHT22;2524;54.364;10.072;2024-01-15T10:05:41;1.80;99.90
5011;DHT22;2524;54.364;10.072;2024-01-15T10:08:07;1.80;99.90
5011;DHT22;2524;54.364;10.072;2024-01-15T10:10:32;1.90;99.90
5011;DHT22;2524;54.364;10.072;2024-01-15T10:12:58;1.70;99.90
5011;DHT22;2524;54.364;10.072;2024-01-15T10:15:28;1.80;99.90
5011;DHT22;2524;54.364;10.072;2024-01-15T10:17:54;1.80;99.90
5011;DHT22;2524;54.364;10.072;2024-01-15T10:20:20;1.80;99.90
5011;DHT22;2524;54.364;10.072;2024-01-15T10:22:47;1.80;99.90
5011;DHT22;2524;54.364;10.072;2024-01-15T10:25:13;1.90;99.90
5011;DHT22;2524;54.364;10.072;2024-01-15T10:27:40;1.80;99.90
5011;DHT22;2524;54.364;10.072;2024-01-15T10:30:09;1.90;99.90
5011;DHT22;2524;54.364;10.072;2024-01-15T10:32:35;1.90;99.90
5011;DHT22;2524;54.364;10.072;2024-01-15T10:35:01;1.90;99.90
5011;DHT22;2524;54.364;10.072;2024-01-15T10:37:26;1.90;99.90
5011;DHT22;2524;54.364;10.072;2024-01-15T10:39:52;2.00;99.90
5011;DHT22;2524;54.364;10.072;2024-01-15T10:42:18;2.20;99.90
5011;DHT22;2524;54.364;10.072;2024-01-15T10:44:44;1.90;99.90
5011;DHT22;2524;54.364;10.072;2024-01-15T10:47:12;2.10;99.90
5011;DHT22;2524;54.364;10.072;2024-01-15T10:49:38;2.20;99.90
5011;DHT22;2524;54.364;10.072;2024-01-15T10:52:05;2.00;99.90
5011;DHT22;2524;54.364;10.072;2024-01-15T10:54:32;2.10;99.90
5011;DHT22;2524;54.364;10.072;2024-01-15T10:56:58;2.20;99.90
5011;DHT22;2524;54.364;10.072;2024-01-15T10:59:23;2.10;99.90
5011;DHT22;2524;54.364;10.072;2024-01-15T11:01:50;2.10;99.90
5011;DHT22;2524;54.364;10.072;2024-01-15T11:04:19;2.20;99.90
5011;DHT22;2524;54.364;10.072;2024-01-15T11:06:48;2.00;99.90
5011;DHT22;2524;54.364;10.072;2024-01-15T11:09:15;2.20;99.90
5011;DHT22;2524;54.364;10.072;2024-01-15T11:11:45;2.10;99.90
5011;DHT22;2524;54.364;10.072;2024-01-15T11:14:38;2.30;99.90
5011;DHT22;2524;54.364;10.072;2024-01-15T11:17:04;2.10;99.90
5011;DHT22;2524;54.364;10.072;2024-01-15T11:19:49;2.20;99.90
5011;DHT22;2524;54.364;10.072;2024-01-15T11:24:57;2.10;99.90
5011;DHT22;2524;54.364;10.072;2024-01-15T11:27:42;2.00;99.90
5011;DHT22;2524;54.364;10.072;2024-01-15T11:30:08;2.00;99.90
5011;DHT22;2524;54.364;10.072;2024-01-15T11:32:36;2.00;99.90
5011;DHT22;2524;54.364;10.072;2024-01-15T11:35:02;2.10;99.90
5011;DHT22;2524;54.364;10.072;2024-01-15T11:42:48;2.00;99.90
5011;DHT22;2524;54.364;10.072;2024-01-15T11:45:19;2.00;99.90
5011;DHT22;2524;54.364;10.072;2024-01-15T11:50:30;2.00;99.90
5011;DHT22;2524;54.364;10.072;2024-01-15T11:53:00;2.00;99.90
5011;DHT22;2524;54.364;10.072;2024-01-15T11:55:34;2.10;99.90
5011;DHT22;2524;54.364;10.072;2024-01-15T11:58:01;2.20;99.90
5011;DHT22;2524;54.364;10.072;2024-01-15T12:00:28;2.30;99.90
5011;DHT22;2524;54.364;10.072;2024-01-15T12:02:54;2.30;99.90
5011;DHT22;2524;54.364;10.072;2024-01-15T12:05:20;2.40;99.90
5011;DHT22;2524;54.364;10.072;2024-01-15T12:07:48;2.40;99.90
5011;DHT22;2524;54.364;10.072;2024-01-15T12:10:19;2.40;99.90
5011;DHT22;2524;54.364;10.072;2024-01-15T12:15:32;2.50;99.90
5011;DHT22;2524;54.364;10.072;2024-01-15T12:18:01;2.50;99.90
5011;DHT22;2524;54.364;10.072;2024-01-15T12:20:29;2.60;99.90
5011;DHT22;2524;54.364;10.072;2024-01-15T12:22:55;2.60;99.90
5011;DHT22;2524;54.364;10.072;2024-01-15T12:25:22;2.60;99.90
5011;DHT22;2524;54.364;10.072;2024-01-15T12:27:48;2.80;99.90
5011;DHT22;2524;54.364;10.072;2024-01-15T12:30:14;2.80;99.90
5011;DHT22;2524;54.364;10.072;2024-01-15T12:32:41;2.70;99.90
5011;DHT22;2524;54.364;10.072;2024-01-15T12:35:13;2.70;99.90
5011;DHT22;2524;54.364;10.072;2024-01-15T12:37:40;2.80;99.90
5011;DHT22;2524;54.364;10.072;2024-01-15T12:40:07;2.80;99.90
5011;DHT22;2524;54.364;10.072;2024-01-15T12:42:33;2.80;99.90
5011;DHT22;2524;54.364;10.072;2024-01-15T12:45:00;2.90;99.90
5011;DHT22;2524;54.364;10.072;2024-01-15T12:47:27;3.00;99.90
5011;DHT22;2524;54.364;10.072;2024-01-15T12:49:53;2.80;99.90
5011;DHT22;2524;54.364;10.072;2024-01-15T12:52:19;2.90;99.90
5011;DHT22;2524;54.364;10.072;2024-01-15T12:54:48;2.90;99.90
5011;DHT22;2524;54.364;10.072;2024-01-15T12:57:15;2.80;99.90
5011;DHT22;2524;54.364;10.072;2024-01-15T12:59:40;2.80;99.90
5011;DHT22;2524;54.364;10.072;2024-01-15T13:02:06;2.80;99.90
5011;DHT22;2524;54.364;10.072;2024-01-15T13:04:32;2.90;99.90
5011;DHT22;2524;54.364;10.072;2024-01-15T13:06:58;2.80;99.90
5011;DHT22;2524;54.364;10.072;2024-01-15T13:09:23;2.80;99.90
5011;DHT22;2524;54.364;10.072;2024-01-15T13:11:49;2.90;99.90
5011;DHT22;2524;54.364;10.072;2024-01-15T13:14:15;2.80;99.90
5011;DHT22;2524;54.364;10.072;2024-01-15T13:16:41;2.80;99.90
5011;DHT22;2524;54.364;10.072;2024-01-15T13:19:10;3.00;99.90
5011;DHT22;2524;54.364;10.072;2024-01-15T13:21:42;2.80;99.90
5011;DHT22;2524;54.364;10.072;2024-01-15T13:24:08;3.00;99.90
5011;DHT22;2524;54.364;10.072;2024-01-15T13:26:34;3.00;99.90
5011;DHT22;2524;54.364;10.072;2024-01-15T13:29:01;3.00;99.90
5011;DHT22;2524;54.364;10.072;2024-01-15T13:31:28;3.20;99.90
5011;DHT22;2524;54.364;10.072;2024-01-15T13:33:53;3.10;99.90
5011;DHT22;2524;54.364;10.072;2024-01-15T13:36:21;3.00;99.90
5011;DHT22;2524;54.364;10.072;2024-01-15T13:38:51;3.10;99.90
5011;DHT22;2524;54.364;10.072;2024-01-15T13:41:18;3.30;99.90
5011;DHT22;2524;54.364;10.072;2024-01-15T13:43:54;3.30;99.90
5011;DHT22;2524;54.364;10.072;2024-01-15T13:46:23;3.50;99.90
5011;DHT22;2524;54.364;10.072;2024-01-15T13:48:49;3.40;99.90
5011;DHT22;2524;54.364;10.072;2024-01-15T13:51:15;3.50;99.90
5011;DHT22;2524;54.364;10.072;2024-01-15T13:53:40;3.60;99.90
5011;DHT22;2524;54.364;10.072;2024-01-15T13:56:07;3.90;99.90
5011;DHT22;2524;54.364;10.072;2024-01-15T13:58:35;4.00;99.90
5011;DHT22;2524;54.364;10.072;2024-01-15T14:01:01;4.10;99.90
5011;DHT22;2524;54.364;10.072;2024-01-15T14:03:26;4.40;99.90
5011;DHT22;2524;54.364;10.072;2024-01-15T14:05:52;4.40;99.90
5011;DHT22;2524;54.364;10.072;2024-01-15T14:08:18;4.40;99.90
5011;DHT22;2524;54.364;10.072;2024-01-15T14:10:43;4.40;99.90
5011;DHT22;2524;54.364;10.072;2024-01-15T14:13:10;4.20;99.90
5011;DHT22;2524;54.364;10.072;2024-01-15T14:15:36;4.10;99.90
5011;DHT22;2524;54.364;10.072;2024-01-15T14:18:02;4.00;99.90
5011;DHT22;2524;54.364;10.072;2024-01-15T14:20:28;3.90;99.90
5011;DHT22;2524;54.364;10.072;2024-01-15T14:22:54;3.80;99.90
5011;DHT22;2524;54.364;10.072;2024-01-15T14:25:20;3.70;99.90
5011;DHT22;2524;54.364;10.072;2024-01-15T14:27:46;3.60;99.90
5011;DHT22;2524;54.364;10.072;2024-01-15T14:30:14;3.40;99.90
5011;DHT22;2524;54.364;10.072;2024-01-15T14:32:53;3.30;99.90
5011;DHT22;2524;54.364;10.072;2024-01-15T14:35:19;3.20;99.90
5011;DHT22;2524;54.364;10.072;2024-01-15T14:37:44;3.00;99.90
5011;DHT22;2524;54.364;10.072;2024-01-15T14:40:11;2.80;99.90
5011;DHT22;2524;54.364;10.072;2024-01-15T14:42:37;2.70;99.90
5011;DHT22;2524;54.364;10.072;2024-01-15T14:45:04;2.80;99.90
5011;DHT22;2524;54.364;10.072;2024-01-15T14:47:34;2.50;99.90
5011;DHT22;2524;54.364;10.072;2024-01-15T14:50:02;2.50;99.90
5011;DHT22;2524;54.364;10.072;2024-01-15T14:52:28;2.40;99.90
5011;DHT22;2524;54.364;10.072;2024-01-15T14:54:53;2.30;99.90
5011;DHT22;2524;54.364;10.072;2024-01-15T14:57:19;2.30;99.90
5011;DHT22;2524;54.364;10.072;2024-01-15T14:59:45;2.20;99.90
5011;DHT22;2524;54.364;10.072;2024-01-15T15:02:10;2.30;99.90
5011;DHT22;2524;54.364;10.072;2024-01-15T15:04:37;2.10;99.90
5011;DHT22;2524;54.364;10.072;2024-01-15T15:07:03;2.10;99.90
5011;DHT22;2524;54.364;10.072;2024-01-15T15:09:29;2.00;99.90
5011;DHT22;2524;54.364;10.072;2024-01-15T15:11:55;2.00;99.90
5011;DHT22;2524;54.364;10.072;2024-01-15T15:14:20;2.10;99.90
5011;DHT22;2524;54.364;10.072;2024-01-15T15:16:47;1.90;99.90
5011;DHT22;2524;54.364;10.072;2024-01-15T15:19:13;2.00;99.90
5011;DHT22;2524;54.364;10.072;2024-01-15T15:21:38;2.00;99.90
5011;DHT22;2524;54.364;10.072;2024-01-15T15:24:04;1.80;99.90
5011;DHT22;2524;54.364;10.072;2024-01-15T15:29:20;1.80;99.90
5011;DHT22;2524;54.364;10.072;2024-01-15T15:31:45;1.80;99.90
5011;DHT22;2524;54.364;10.072;2024-01-15T15:34:11;1.90;99.90
5011;DHT22;2524;54.364;10.072;2024-01-15T15:36:37;1.70;99.90
5011;DHT22;2524;54.364;10.072;2024-01-15T15:39:04;1.70;99.90
5011;DHT22;2524;54.364;10.072;2024-01-15T15:41:29;1.70;99.90
5011;DHT22;2524;54.364;10.072;2024-01-15T15:43:55;1.80;99.90
5011;DHT22;2524;54.364;10.072;2024-01-15T15:46:21;1.80;99.90
5011;DHT22;2524;54.364;10.072;2024-01-15T15:48:46;1.70;99.90
5011;DHT22;2524;54.364;10.072;2024-01-15T15:51:12;1.70;99.90
5011;DHT22;2524;54.364;10.072;2024-01-15T15:53:38;1.80;99.90
5011;DHT22;2524;54.364;10.072;2024-01-15T15:56:03;1.80;99.90
5011;DHT22;2524;54.364;10.072;2024-01-15T15:58:29;1.60;99.90
5011;DHT22;2524;54.364;10.072;2024-01-15T16:00:55;1.70;99.90
5011;DHT22;2524;54.364;10.072;2024-01-15T16:03:22;1.60;99.90
5011;DHT22;2524;54.364;10.072;2024-01-15T16:05:47;1.60;99.90
5011;DHT22;2524;54.364;10.072;2024-01-15T16:08:14;1.50;99.90
5011;DHT22;2524;54.364;10.072;2024-01-15T16:10:39;1.50;99.90
5011;DHT22;2524;54.364;10.072;2024-01-15T16:13:05;1.60;99.90